createdAt,value
2018-11-13T00:03:38.774Z,12.00
2018-11-13T00:09:45.377Z,11.80
2018-11-13T00:12:43.599Z,11.80
2018-11-13T00:27:59.436Z,11.80
2018-11-13T00:30:38.186Z,11.80
2018-11-13T00:52:38.032Z,11.80
2018-11-13T00:55:36.512Z,11.80
2018-11-13T00:58:16.874Z,11.80
2018-11-13T01:04:26.766Z,11.80
2018-11-13T01:07:02.154Z,11.70
2018-11-13T01:09:55.601Z,11.70
2018-11-13T01:12:42.364Z,11.70
2018-11-13T01:18:44.298Z,11.60
2018-11-13T01:24:33.879Z,11.60
2018-11-13T01:32:27.839Z,11.60
2018-11-13T01:35:35.865Z,11.60
2018-11-13T01:38:07.827Z,11.50
2018-11-13T01:40:47.214Z,11.50
2018-11-13T01:43:23.898Z,11.50
2018-11-13T01:46:26.498Z,11.60
2018-11-13T01:52:21.992Z,11.60
2018-11-13T01:55:04.754Z,11.70
2018-11-13T01:57:42.098Z,11.70
2018-11-13T02:00:30.556Z,11.80
2018-11-13T02:03:10.421Z,11.80
2018-11-13T02:05:56.636Z,11.80
2018-11-13T02:09:01.802Z,11.90
2018-11-13T02:11:47.932Z,11.90
2018-11-13T02:14:25.642Z,11.90
2018-11-13T02:17:13.812Z,12.00
2018-11-13T02:19:55.800Z,11.90
2018-11-13T02:22:32.368Z,11.90
2018-11-13T02:25:19.906Z,11.90
2018-11-13T02:27:59.082Z,11.80
2018-11-13T02:30:45.958Z,11.80
2018-11-13T02:33:29.285Z,11.80
2018-11-13T02:36:15.510Z,11.80
2018-11-13T02:38:54.594Z,11.70
2018-11-13T02:41:26.895Z,11.70
2018-11-13T02:44:04.837Z,11.60
2018-11-13T02:46:45.897Z,11.70
2018-11-13T02:49:26.025Z,11.60
2018-11-13T02:52:10.027Z,11.50
2018-11-13T02:58:22.574Z,11.40
2018-11-13T03:01:08.708Z,11.40
2018-11-13T03:03:46.760Z,11.30
2018-11-13T03:06:22.129Z,11.30
2018-11-13T03:09:08.118Z,11.30
2018-11-13T03:11:46.114Z,11.30
2018-11-13T03:14:30.439Z,11.30
2018-11-13T03:17:04.131Z,11.40
2018-11-13T03:19:44.672Z,11.40
2018-11-13T03:22:32.933Z,11.40
2018-11-13T03:25:22.499Z,11.40
2018-11-13T03:28:05.317Z,11.50
2018-11-13T03:30:41.964Z,11.60
2018-11-13T03:33:24.264Z,11.60
2018-11-13T03:35:56.535Z,11.60
2018-11-13T03:38:27.936Z,11.70
2018-11-13T03:40:58.721Z,11.70
2018-11-13T03:43:28.622Z,11.70
2018-11-13T03:46:00.845Z,11.70
2018-11-13T03:48:30.756Z,11.70
2018-11-13T03:51:00.624Z,11.80
2018-11-13T03:53:30.897Z,11.80
2018-11-13T03:56:01.938Z,11.80
2018-11-13T03:58:38.995Z,11.80
2018-11-13T04:01:09.243Z,11.90
2018-11-13T04:03:39.457Z,11.80
2018-11-13T04:06:10.788Z,11.90
2018-11-13T04:08:41.142Z,11.90
2018-11-13T04:11:11.408Z,11.80
2018-11-13T04:13:43.022Z,11.80
2018-11-13T04:16:12.910Z,11.90
2018-11-13T04:18:43.026Z,11.90
2018-11-13T04:21:13.206Z,11.90
2018-11-13T04:23:56.601Z,11.90
2018-11-13T04:26:26.447Z,11.90
2018-11-13T04:29:01.764Z,11.90
2018-11-13T04:31:31.602Z,11.90
2018-11-13T04:34:02.643Z,11.80
2018-11-13T04:36:32.474Z,11.80
2018-11-13T04:39:02.718Z,11.80
2018-11-13T04:41:33.863Z,11.80
2018-11-13T04:44:03.896Z,11.80
2018-11-13T04:46:34.761Z,11.80
2018-11-13T04:49:18.013Z,11.80
2018-11-13T04:51:49.779Z,11.80
2018-11-13T04:54:21.787Z,11.80
2018-11-13T04:56:51.753Z,11.80
2018-11-13T04:59:22.233Z,11.80
2018-11-13T05:02:11.204Z,11.80
2018-11-13T05:04:55.511Z,11.80
2018-11-13T05:07:42.936Z,11.80
2018-11-13T05:10:26.218Z,11.70
2018-11-13T05:13:06.873Z,11.80
2018-11-13T05:15:36.730Z,11.80
2018-11-13T05:18:21.352Z,11.80
2018-11-13T05:20:54.133Z,11.80
2018-11-13T05:23:30.967Z,11.80
2018-11-13T05:26:03.507Z,11.80
2018-11-13T05:28:33.326Z,11.80
2018-11-13T05:31:03.081Z,11.80
2018-11-13T05:33:32.898Z,11.80
2018-11-13T05:36:21.788Z,11.80
2018-11-13T05:38:58.617Z,11.80
2018-11-13T05:41:33.510Z,11.80
2018-11-13T05:44:03.614Z,11.80
2018-11-13T05:46:35.933Z,11.90
2018-11-13T05:49:06.607Z,11.80
2018-11-13T05:51:40.518Z,11.90
2018-11-13T05:54:13.111Z,11.90
2018-11-13T05:56:58.341Z,12.00
2018-11-13T05:59:28.338Z,11.90
2018-11-13T06:02:00.778Z,11.90
2018-11-13T06:04:31.648Z,11.90
2018-11-13T06:07:01.656Z,11.80
2018-11-13T06:09:37.590Z,11.80
2018-11-13T06:12:07.993Z,11.90
2018-11-13T06:14:38.782Z,11.90
2018-11-13T06:17:12.235Z,12.00
2018-11-13T06:19:59.409Z,12.00
2018-11-13T06:22:32.106Z,12.10
2018-11-13T06:25:19.122Z,12.10
2018-11-13T06:28:06.326Z,12.10
2018-11-13T06:30:37.898Z,12.20
2018-11-13T06:33:07.929Z,12.20
2018-11-13T06:35:41.084Z,12.20
2018-11-13T06:38:11.616Z,12.20
2018-11-13T06:40:42.330Z,12.20
2018-11-13T06:43:12.067Z,12.20
2018-11-13T06:45:49.092Z,12.30
2018-11-13T06:48:20.390Z,12.30
2018-11-13T06:50:59.477Z,12.20
2018-11-13T06:53:44.098Z,12.20
2018-11-13T06:56:15.188Z,12.20
2018-11-13T06:58:48.277Z,12.20
2018-11-13T07:01:44.594Z,12.30
2018-11-13T07:04:27.421Z,12.30
2018-11-13T07:07:00.270Z,12.20
2018-11-13T07:09:35.116Z,12.20
2018-11-13T07:12:04.964Z,12.10
2018-11-13T07:14:35.575Z,12.10
2018-11-13T07:17:05.423Z,12.00
2018-11-13T07:19:41.106Z,12.10
2018-11-13T07:22:15.470Z,12.00
2018-11-13T07:24:59.963Z,12.00
2018-11-13T07:27:39.509Z,12.00
2018-11-13T07:30:27.895Z,11.90
2018-11-13T07:33:10.247Z,11.90
2018-11-13T07:36:02.629Z,11.90
2018-11-13T07:38:47.871Z,11.80
2018-11-13T07:41:28.915Z,11.90
2018-11-13T07:44:21.284Z,11.90
2018-11-13T07:49:51.112Z,11.90
2018-11-13T07:52:31.193Z,11.90
2018-11-13T07:58:19.268Z,11.90
2018-11-13T08:01:37.007Z,12.00
2018-11-13T08:04:17.394Z,12.00
2018-11-13T08:14:26.666Z,12.10
2018-11-13T08:17:35.848Z,12.20
2018-11-13T08:20:31.468Z,12.40
2018-11-13T08:23:21.122Z,12.50
2018-11-13T08:26:14.613Z,12.70
2018-11-13T08:29:01.097Z,13.00
2018-11-13T08:31:54.149Z,13.40
2018-11-13T08:34:39.532Z,13.90
2018-11-13T08:37:27.189Z,14.30
2018-11-13T08:43:24.920Z,14.80
2018-11-13T08:46:07.239Z,15.00
2018-11-13T08:48:47.975Z,15.00
2018-11-13T08:51:39.553Z,14.90
2018-11-13T08:59:48.314Z,14.70
2018-11-13T09:02:31.923Z,14.60
2018-11-13T09:05:16.429Z,14.40
2018-11-13T09:07:51.614Z,14.40
2018-11-13T09:10:22.427Z,14.30
2018-11-13T09:13:19.579Z,14.30
2018-11-13T09:15:59.126Z,14.20
2018-11-13T09:18:39.330Z,14.00
2018-11-13T09:21:10.480Z,14.00
2018-11-13T09:23:47.642Z,14.10
2018-11-13T09:26:28.857Z,14.10
2018-11-13T09:28:58.707Z,14.00
2018-11-13T09:31:33.962Z,14.00
2018-11-13T09:34:13.413Z,14.00
2018-11-13T09:36:49.784Z,14.10
2018-11-13T09:39:31.358Z,14.10
2018-11-13T09:42:14.427Z,14.10
2018-11-13T09:44:45.537Z,14.00
2018-11-13T09:47:29.573Z,13.90
2018-11-13T09:50:12.351Z,13.90
2018-11-13T09:52:43.001Z,14.00
2018-11-13T09:55:25.632Z,14.00
2018-11-13T09:58:11.521Z,14.10
2018-11-13T10:03:29.256Z,14.20
2018-11-13T10:06:06.958Z,14.20
2018-11-13T10:08:57.333Z,14.20
2018-11-13T10:15:16.475Z,14.10
2018-11-13T10:25:59.011Z,14.20
2018-11-13T10:28:48.539Z,14.20
2018-11-13T10:31:31.914Z,14.20
2018-11-13T10:34:04.555Z,14.20
2018-11-13T10:36:46.852Z,14.20
2018-11-13T10:39:32.475Z,14.20
2018-11-13T10:42:04.055Z,14.30
2018-11-13T10:44:34.572Z,14.40
2018-11-13T10:47:09.944Z,14.50
2018-11-13T10:49:40.603Z,14.50
2018-11-13T10:52:44.600Z,14.50
2018-11-13T10:55:29.841Z,14.50
2018-11-13T10:58:11.585Z,14.40
2018-11-13T11:00:53.917Z,14.40
2018-11-13T11:03:30.180Z,14.50
2018-11-13T11:06:01.480Z,14.60
2018-11-13T11:08:31.294Z,14.80
2018-11-13T11:11:01.067Z,14.80
2018-11-13T11:13:31.341Z,14.80
2018-11-13T11:16:01.489Z,14.80
2018-11-13T11:18:31.869Z,14.80
2018-11-13T11:21:18.880Z,14.80
2018-11-13T11:23:50.387Z,14.90
2018-11-13T11:26:21.543Z,14.90
2018-11-13T11:28:51.610Z,15.10
2018-11-13T11:31:26.914Z,15.20
2018-11-13T11:33:57.470Z,15.00
2018-11-13T11:36:27.686Z,14.90
2018-11-13T11:38:57.560Z,14.90
2018-11-13T11:41:27.360Z,14.90
2018-11-13T11:44:09.222Z,14.90
2018-11-13T11:46:42.540Z,14.90
2018-11-13T11:49:14.193Z,15.00
2018-11-13T11:51:44.623Z,15.00
2018-11-13T11:54:14.532Z,14.90
2018-11-13T11:56:44.505Z,14.90
2018-11-13T11:59:15.336Z,14.80
2018-11-13T12:02:05.151Z,14.80
2018-11-13T12:04:44.796Z,14.90
2018-11-13T12:07:15.168Z,15.00
2018-11-13T12:09:45.525Z,15.10
2018-11-13T12:12:15.826Z,15.00
2018-11-13T12:14:56.773Z,14.80
2018-11-13T12:17:26.672Z,14.80
2018-11-13T12:19:58.489Z,14.70
2018-11-13T12:22:28.658Z,14.70
2018-11-13T12:25:00.436Z,14.70
2018-11-13T12:27:33.746Z,14.70
2018-11-13T12:30:03.810Z,14.60
2018-11-13T12:32:34.075Z,14.60
2018-11-13T12:35:04.378Z,14.50
2018-11-13T12:37:34.292Z,14.50
2018-11-13T12:40:04.420Z,14.50
2018-11-13T12:42:34.229Z,14.60
2018-11-13T12:45:08.044Z,14.60
2018-11-13T12:50:40.806Z,14.50
2018-11-13T12:53:19.347Z,14.50
2018-11-13T12:55:51.839Z,14.50
2018-11-13T12:58:27.009Z,14.50
2018-11-13T13:01:09.711Z,14.60
2018-11-13T13:03:42.341Z,14.70
2018-11-13T13:06:12.629Z,14.70
2018-11-13T13:08:42.948Z,14.80
2018-11-13T13:11:28.481Z,14.80
2018-11-13T13:14:18.438Z,14.70
2018-11-13T13:17:03.065Z,14.50
2018-11-13T13:19:44.817Z,14.50
2018-11-13T13:22:20.829Z,14.40
2018-11-13T13:24:56.605Z,14.40
2018-11-13T13:27:27.424Z,14.50
2018-11-13T13:30:04.335Z,14.60
2018-11-13T13:32:34.306Z,14.60
2018-11-13T13:35:16.431Z,14.50
2018-11-13T13:38:05.780Z,14.50
2018-11-13T13:44:02.872Z,14.60
2018-11-13T13:49:51.412Z,14.70
2018-11-13T13:56:01.688Z,14.60
2018-11-13T14:02:32.476Z,14.60
2018-11-13T14:12:12.420Z,14.60
2018-11-13T14:15:21.418Z,14.50
2018-11-13T14:17:56.292Z,14.30
2018-11-13T14:20:29.009Z,14.30
2018-11-13T14:23:18.078Z,14.30
2018-11-13T14:25:56.529Z,14.20
2018-11-13T14:28:33.753Z,14.20
2018-11-13T14:31:05.713Z,14.30
2018-11-13T14:33:35.461Z,14.20
2018-11-13T14:36:05.547Z,14.20
2018-11-13T14:38:41.961Z,14.20
2018-11-13T14:41:41.962Z,14.10
2018-11-13T14:47:26.666Z,14.20
2018-11-13T14:50:05.142Z,14.20
2018-11-13T14:52:42.123Z,14.20
2018-11-13T14:55:42.496Z,14.20
2018-11-13T14:58:19.658Z,14.30
2018-11-13T15:01:01.686Z,14.30
2018-11-13T15:03:38.070Z,14.30
2018-11-13T15:06:18.042Z,14.20
2018-11-13T15:09:03.161Z,14.20
2018-11-13T15:11:53.574Z,14.20
2018-11-13T15:18:19.170Z,14.10
2018-11-13T15:21:01.826Z,14.10
2018-11-13T15:26:24.740Z,14.10
2018-11-13T15:29:00.619Z,14.10
2018-11-13T15:31:35.276Z,14.00
2018-11-13T15:34:08.990Z,14.00
2018-11-13T15:36:45.573Z,13.90
2018-11-13T15:39:36.003Z,13.90
2018-11-13T15:42:16.645Z,13.90
2018-11-13T15:44:52.012Z,13.70
2018-11-13T15:47:30.987Z,13.70
2018-11-13T15:50:06.625Z,13.80
2018-11-13T15:52:39.195Z,13.70
2018-11-13T15:55:21.354Z,14.40
2018-11-13T15:57:51.438Z,13.60
2018-11-13T16:03:55.725Z,13.60
2018-11-13T16:11:37.839Z,13.50
2018-11-13T16:14:12.629Z,13.50
2018-11-13T16:16:51.585Z,13.00
2018-11-13T16:19:31.595Z,13.00
2018-11-13T16:22:06.287Z,13.00
2018-11-13T16:24:42.445Z,13.00
2018-11-13T16:30:26.921Z,13.00
2018-11-13T16:33:08.617Z,13.00
2018-11-13T16:35:44.540Z,13.00
2018-11-13T16:38:23.741Z,12.90
2018-11-13T16:40:56.202Z,13.00
2018-11-13T16:43:46.257Z,12.90
2018-11-13T16:46:21.267Z,12.90
2018-11-13T16:48:51.238Z,12.80
2018-11-13T16:51:29.376Z,12.80
2018-11-13T16:54:09.346Z,12.70
2018-11-13T16:57:01.523Z,12.60
2018-11-13T16:59:42.087Z,12.60
2018-11-13T17:02:21.451Z,12.50
2018-11-13T17:05:10.017Z,12.50
2018-11-13T17:07:40.518Z,12.50
2018-11-13T17:10:25.752Z,12.30
2018-11-13T17:12:56.074Z,12.10
2018-11-13T17:15:27.796Z,12.00
2018-11-13T17:18:05.474Z,11.90
2018-11-13T17:20:35.605Z,11.80
2018-11-13T17:23:07.866Z,11.70
2018-11-13T17:25:49.925Z,11.50
2018-11-13T17:28:26.631Z,11.40
2018-11-13T17:30:56.767Z,11.30
2018-11-13T17:33:34.909Z,11.20
2018-11-13T17:36:05.743Z,11.10
2018-11-13T17:38:40.970Z,11.00
2018-11-13T17:41:12.742Z,11.00
2018-11-13T17:43:46.033Z,11.00
2018-11-13T17:46:20.761Z,10.90
2018-11-13T17:48:58.590Z,11.00
2018-11-13T17:51:40.009Z,11.00
2018-11-13T17:54:13.741Z,11.10
2018-11-13T17:56:53.447Z,11.10
2018-11-13T17:59:33.319Z,11.20
2018-11-13T18:02:04.740Z,11.20
2018-11-13T18:04:34.970Z,11.10
2018-11-13T18:07:06.388Z,11.10
2018-11-13T18:09:38.063Z,11.10
2018-11-13T18:12:20.993Z,11.00
2018-11-13T18:14:53.201Z,10.80
2018-11-13T18:17:27.079Z,10.70
2018-11-13T18:20:02.115Z,10.60
2018-11-13T18:23:07.836Z,10.60
2018-11-13T18:25:50.243Z,10.60
2018-11-13T18:28:52.376Z,10.70
2018-11-13T18:37:54.385Z,10.70
2018-11-13T18:43:27.161Z,10.40
2018-11-13T18:49:23.635Z,10.30
2018-11-13T18:52:04.979Z,10.20
2018-11-13T18:54:52.921Z,10.20
2018-11-13T18:57:33.401Z,10.30
2018-11-13T19:00:54.997Z,10.20
2018-11-13T19:03:32.063Z,10.30
2018-11-13T19:06:23.277Z,10.20
2018-11-13T19:09:09.939Z,10.20
2018-11-13T19:11:50.619Z,10.20
2018-11-13T19:14:35.197Z,10.20
2018-11-13T19:17:15.899Z,10.20
2018-11-13T19:20:08.804Z,10.30
2018-11-13T19:22:49.404Z,10.20
2018-11-13T19:25:32.516Z,10.30
2018-11-13T19:28:04.761Z,10.30
2018-11-13T19:30:47.812Z,10.30
2018-11-13T19:36:26.440Z,10.20
2018-11-13T19:39:09.135Z,10.20
2018-11-13T19:41:44.238Z,10.10
2018-11-13T19:44:18.261Z,10.10
2018-11-13T19:52:08.705Z,10.10
2018-11-13T19:54:51.686Z,10.10
2018-11-13T19:57:53.907Z,9.90
2018-11-13T20:00:53.539Z,9.90
2018-11-13T20:03:40.004Z,9.90
2018-11-13T20:06:19.534Z,9.90
2018-11-13T20:12:44.730Z,9.90
2018-11-13T20:15:40.062Z,9.90
2018-11-13T20:18:25.254Z,9.80
2018-11-13T20:20:57.361Z,9.90
2018-11-13T20:23:39.566Z,9.90
2018-11-13T20:26:20.402Z,9.90
2018-11-13T20:29:04.721Z,9.90
2018-11-13T20:31:49.789Z,9.90
2018-11-13T20:34:36.950Z,9.90
2018-11-13T20:37:19.229Z,9.90
2018-11-13T20:40:08.495Z,9.90
2018-11-13T20:42:57.766Z,9.90
2018-11-13T20:45:40.046Z,10.00
2018-11-13T20:56:21.680Z,10.00
2018-11-13T20:59:05.095Z,10.00
2018-11-13T21:01:48.676Z,10.10
2018-11-13T21:04:30.880Z,10.10
2018-11-13T21:07:10.447Z,10.10
2018-11-13T21:09:49.302Z,10.10
2018-11-13T21:12:26.230Z,10.10
2018-11-13T21:15:15.304Z,10.00
2018-11-13T21:17:48.607Z,9.90
2018-11-13T21:20:22.442Z,9.90
2018-11-13T21:25:40.166Z,9.70
2018-11-13T21:31:02.819Z,9.70
2018-11-13T21:33:41.276Z,9.60
2018-11-13T21:36:15.357Z,9.70
2018-11-13T21:38:55.093Z,9.70
2018-11-13T21:41:38.126Z,9.70
2018-11-13T21:44:17.888Z,9.80
2018-11-13T21:46:54.755Z,9.80
2018-11-13T21:49:31.655Z,9.80
2018-11-13T21:55:30.129Z,9.80
2018-11-13T21:58:05.194Z,9.80
2018-11-13T22:01:32.011Z,9.80
2018-11-13T22:04:27.240Z,9.70
2018-11-13T22:07:13.874Z,9.70
2018-11-13T22:09:55.517Z,9.70
2018-11-13T22:12:36.367Z,9.70
2018-11-13T22:15:25.619Z,9.60
2018-11-13T22:18:03.087Z,9.60
2018-11-13T22:20:43.621Z,9.60
2018-11-13T22:23:17.821Z,9.50
2018-11-13T22:25:54.197Z,9.50
2018-11-13T22:28:27.811Z,9.40
2018-11-13T22:31:06.764Z,9.40
2018-11-13T22:33:45.723Z,9.30
2018-11-13T22:40:14.128Z,9.30
2018-11-13T22:42:59.448Z,9.20
2018-11-13T22:45:52.532Z,9.10
2018-11-13T22:48:43.569Z,9.00
2018-11-13T22:51:31.449Z,9.00
2018-11-13T22:54:24.379Z,9.00
2018-11-13T22:57:12.196Z,9.00
2018-11-13T22:59:55.361Z,9.00
2018-11-13T23:03:06.630Z,8.90
2018-11-13T23:05:53.895Z,8.90
2018-11-13T23:08:44.728Z,8.90
2018-11-13T23:11:20.356Z,8.80
2018-11-13T23:14:20.652Z,8.80
2018-11-13T23:17:10.649Z,8.60
2018-11-13T23:19:50.899Z,8.50
2018-11-13T23:25:58.474Z,8.50
2018-11-13T23:29:28.945Z,8.50
2018-11-13T23:32:14.472Z,8.50
2018-11-13T23:38:12.631Z,8.60
2018-11-13T23:40:53.612Z,8.50
2018-11-13T23:46:48.412Z,8.40
2018-11-13T23:52:53.015Z,8.40
2018-11-13T23:55:37.120Z,8.20
2018-11-13T23:58:10.786Z,8.10
